AirNav   ATP
 
 995 users online  

U88 Garden Valley Airport
Garden Valley, Idaho, USA


FAA INFORMATION EFFECTIVE 04 JANUARY 2018

Location

FAA Identifier: U88
Lat/Long: 44-04-01.0000N / 115-55-52.6000W
44-04.016667N / 115-55.876667W
44.0669444 / -115.9312778
(estimated)
Elevation: 3177 ft. / 968.3 m (surveyed)
Variation: 17E (1985)
From city: 2 miles SE of GARDEN VALLEY, ID
Time zone: UTC -7 (UTC -6 during Daylight Saving Time)
Zip code: 83622

Airport Operations

Airport use: Open to the public
Activation date: 06/1967
Control tower: no
ARTCC: SALT LAKE CITY CENTER
FSS: BOISE FLIGHT SERVICE STATION
NOTAMs facility: BOI (NOTAM-D service available)
Attendance: UNATNDD
Wind indicator: yes
Segmented circle: yes
1/2 SEGMENTED CIRCLE.

Airport Communications

CTAF: 122.9

Nearby radio navigation aids

VOR radial/distance  VOR name  Freq  Var
BOIr003/32.9BOISE VORTAC113.3017E

Airport Services

Parking: tiedowns
Airframe service: NONE
Powerplant service: NONE
Bottled oxygen: NONE
Bulk oxygen: NONE

Runway Information

Runway 10/28

Dimensions: 3850 x 125 ft. / 1173 x 38 m
Surface: turf, in good condition
Runway edge markings: 10/28 EDGES & THLDS MARKED WITH WHITE ROCKS.
Gradient: E
Operational restrictions: RCMD LANDING RWY 10; TAKE-OFF RWY 28 IF WINDS ALLOW.
RUNWAY 10  RUNWAY 28
Latitude: 44-04.155167N44-03.879167N
Longitude: 115-56.272167W115-55.481000W
Elevation: 3125.0 ft.3177.0 ft.
Gradient: 1.4% UP
Traffic pattern: leftleft
Obstructions: 4 ft. fence, 80 ft. left of centerline4 ft. fence, 63 ft. right of centerline

Airport Ownership and Management from official FAA records

Ownership: Publicly-owned
Owner: STATE OF ID, ITD, DIV AERO
P.O. BOX 7129
BOISE, ID 83707-1129
Phone 208-334-8775
Manager: DIV ADMIN.
P.O. BOX 7129
BOISE, ID 83707-1129
Phone 208-334-8775

Airport Operational Statistics

Aircraft based on the field: 5
Single engine airplanes: 5
    
Aircraft operations: avg 49/week *
78% transient general aviation
18% local general aviation
2% military
2% air taxi
* for 12-month period ending 30 August 2016

Additional Remarks

NO WINTER MAINTENANCE.
USFS HELIPORT OPNS ADJACENT TO SE END OF ARPT.
WATCH FOR SPRINKLER HEADS ON RY.
ARPT LCTD IN MTN VALLEY.
NUMEROUS ADDITIONAL OBSTNS ON APCH ENDS OF BOTH RWYS.
NO TELEPHONE AVBL AT ARPT.

Instrument Procedures

There are no published instrument procedures at U88.

Some nearby airports with instrument procedures:

KBOI - Boise Air Terminal/Gowen Field (33 nm SW)
KMAN - Nampa Municipal Airport (39 nm SW)
KEUL - Caldwell Industrial Airport (40 nm SW)
S87 - Weiser Municipal Airport (45 nm W)
KONO - Ontario Municipal Airport (47 nm W)
 
Loc | Ops | Rwys | IFR | FBO | Links
Com | Nav | Svcs | Stats | Notes


 
Area around U88 (Garden Valley Airport)
 
Road maps at: MapQuest Bing Google
 
Aerial photo
WARNING: Photo may not be current or correct
Aerial photo of U88 (Garden Valley Airport)
Photo by C. Wayne Wright, NASA
Photo taken 06-Oct-2007

Do you have a better or more recent aerial photo of Garden Valley Airport that you would like to share? If so, please send us your photo.

 
Sectional chart

 
Airport distance calculator
Flying to Garden Valley Airport? Find the distance to fly.

From to U88

Sunrise and sunset
Times for 20-Jan-2018
 Local
(UTC-7)
 Zulu
(UTC)
Morning civil twilight07:4214:42
Sunrise08:1315:13
Sunset17:3600:36
Evening civil twilight18:0801:08

Current date and time
Zulu (UTC)  20-Jan-2018 20:01:07
Local (UTC-7)  20-Jan-2018 13:01:07
 
METAR
KBOI 
33nm SW 
201953Z 31010KT 10SM CLR 04/M02 A3006 RMK AO2 SLP194 T00391022
KMAN 
39nm SW 
201955Z AUTO 31010KT 10SM CLR 04/M01 A3007 RMK A01
KEUL 
40nm SW 
201956Z AUTO 28009KT 10SM 04/M02 A3009 RMK AO2 SLP206 T00441022 $
KSNT 
43nm E 
201951Z AUTO 27004KT M04/M12 A2996 RMK AO1 SLP164 T10441122
KONO 
47nm W 
201953Z AUTO 23003KT 10SM BKN080 04/M01 A3011 RMK AO2 SLP214 T00391006
KMYL 
50nm N 
201951Z AUTO 18004KT 10SM BKN050 M04/M06 A2997 RMK AO2 SLP189 T10441056
TAF
KBOI 
33nm SW 
201720Z 2018/2118 31005KT P6SM SCT050 FM210900 11004KT P6SM BKN250
KEUL 
40nm SW 
201720Z 2018/2118 VRB04KT P6SM BKN250 AMD NOT SKED
NOTAMs
Click for the latest NOTAMs
NOTAMs are issued by the DoD/FAA and will open in a separate window not controlled by AirNav.

 

 
 

Would you like to see your business listed on this page?

 If your business provides an interesting product or service to pilots, flight crews, aircraft, or users of the Garden Valley Airport, you should consider listing it here.  To start the listing process, click on the button below
 
Add a business
 

Other Pages about Garden Valley Airport

www.flyidaho.org/...
 
Update a link
 
Copyright © AirNav, LLC. All rights reserved. Privacy Policy  Contact